プラハ の空港の天気 - METARとTAF

ルズィニエ国際空港(プラハ) ( LKPR / PRG ) - チェコ プラハ
飛行場実況気象(Metar)
観測時間07/02 13:15 CEST (07/02 11:15 UTC)
風向・風速西北西 3m/s
視程10km以上
天気現象弱いしゅう雨 周辺で雷
少しの雲 雲底高度 300m
全天の4割程度の雲 雲底高度 880m
気温16℃
湿度100%
気圧1012hPa
METARLKPR 021115Z 29005KT 9999 -SHRA VCTS FEW010 SCT029CB 16/16 Q1012 RMK REG QNH 1008
過去の天気等 Google飛行場航空写真 Wunderground天気予報

過去48時間のMETAR

飛行場予報(TAF)
発表時間: 7/02 07:00 CEST (7/02 05:00 UTC)
予報対象時間: 2日8時 CEST ~ 3日14時 CEST
風向・風速南西 5m/s
視程10km以上
全天の4割程度の雲 雲底高度 1220m
2日8時 CEST ~ 3日5時 CEST に一時的に
視程9000m
天気現象しゅう雨
全天の4割程度の塔状積雲 雲底高度 910m
2日13時 CEST ~ 3日2時 CEST に 確率 40% で一時的に
風向・風速西 7m/s 瞬間風速 14m/s
視程4000m
天気現象雷雨
全天の4割程度の積乱雲 雲底高度 760m
全天の8割程度の雲 雲底高度 910m
3日10時 CEST ~ 3日14時 CEST に一時的に
風向・風速西北西 7m/s
視程10km以上
天気現象弱いしゅう雨
全天の4割程度の塔状積雲 雲底高度 760m
TAF LKPR 020500Z 0206/0312 23010KT 9999 SCT040
TEMPO 0206/0303 9000 SHRA SCT030TCU
PROB40 TEMPO 0211/0300 26014G28KT 4000 TSRA SCT025CB BKN030
TEMPO 0308/0312 30014KT 9999 -SHRA SCT025TCU